Terminal Aerodrome Forecast
Issued by NWS

Home | Current Version | Previous Version | Text Only | Print | Product List | Glossary On
Versions: 1 2 3 4 5 6 7 8 9 10 11 12 13 14 15
000
FTUS46 KSEW 171748
TAFHQM
TAF
KHQM 171748Z 1718/1818 22005KT P6SM VCSH SCT025 BKN040
      TEMPO 1718/1722 5SM -SHRA BR BKN025 BKN040
     FM180600 18006KT P6SM VCSH SCT012 BKN018 OVC030=

USA.gov is the U.S. government's official web portal to all federal, state and local government web resources and services.